createdAt,value
2018-04-27T00:00:53.983Z,4.00
2018-04-27T00:01:54.146Z,4.00
2018-04-27T00:02:54.309Z,4.00
2018-04-27T00:03:54.474Z,4.00
2018-04-27T00:04:54.635Z,4.00
2018-04-27T00:05:55.527Z,4.00
2018-04-27T00:06:54.939Z,4.00
2018-04-27T00:09:37.491Z,4.00
2018-04-27T00:10:38.236Z,4.00
2018-04-27T00:11:37.771Z,4.00
2018-04-27T00:12:37.922Z,4.00
2018-04-27T00:13:38.092Z,4.00
2018-04-27T00:14:38.245Z,4.00
2018-04-27T00:15:38.416Z,4.00
2018-04-27T00:16:38.579Z,4.00
2018-04-27T00:17:38.743Z,4.00
2018-04-27T00:18:38.907Z,4.00
2018-04-27T00:21:21.165Z,4.00
2018-04-27T00:22:21.324Z,4.00
2018-04-27T00:23:21.488Z,4.00
2018-04-27T00:24:21.648Z,4.00
2018-04-27T00:25:21.807Z,4.00
2018-04-27T00:26:21.970Z,4.00
2018-04-27T00:27:22.134Z,4.00
2018-04-27T00:28:22.298Z,4.00
2018-04-27T00:29:22.461Z,4.00
2018-04-27T00:30:22.624Z,4.00
2018-04-27T00:31:22.784Z,4.00
2018-04-27T00:32:22.946Z,4.00
2018-04-27T00:33:23.107Z,4.00
2018-04-27T00:34:23.349Z,4.00
2018-04-27T00:35:23.433Z,4.00
2018-04-27T00:37:56.192Z,4.00
2018-04-27T00:38:56.352Z,4.00
2018-04-27T00:39:56.513Z,4.00
2018-04-27T00:40:56.681Z,4.00
2018-04-27T00:41:56.839Z,4.00
2018-04-27T00:42:57.010Z,4.00
2018-04-27T00:43:57.174Z,4.00
2018-04-27T00:44:57.330Z,4.00
2018-04-27T00:45:58.236Z,4.00
2018-04-27T00:46:57.643Z,4.00
2018-04-27T00:47:57.807Z,4.00
2018-04-27T00:48:57.978Z,4.00
2018-04-27T00:49:58.139Z,4.00
2018-04-27T00:50:58.301Z,4.00
2018-04-27T00:51:58.467Z,4.00
2018-04-27T00:54:41.028Z,4.00
2018-04-27T00:55:41.760Z,4.00
2018-04-27T00:56:41.293Z,4.00
2018-04-27T00:57:41.462Z,4.00
2018-04-27T00:58:41.612Z,4.00
2018-04-27T00:59:41.772Z,4.00
2018-04-27T01:00:41.948Z,4.00
2018-04-27T01:01:42.105Z,4.00
2018-04-27T01:02:42.268Z,4.00
2018-04-27T01:03:42.433Z,4.00
2018-04-27T01:04:42.601Z,4.00
2018-04-27T01:05:42.757Z,4.00
2018-04-27T01:06:42.916Z,4.00
2018-04-27T01:07:43.070Z,4.00
2018-04-27T01:08:43.232Z,4.00
2018-04-27T01:11:15.487Z,4.00
2018-04-27T01:12:15.662Z,4.00
2018-04-27T01:13:15.827Z,4.00
2018-04-27T01:14:16.524Z,4.00
2018-04-27T01:15:16.186Z,4.00
2018-04-27T01:16:16.346Z,4.00
2018-04-27T01:17:16.506Z,4.00
2018-04-27T01:18:16.667Z,4.00
2018-04-27T01:19:16.827Z,4.00
2018-04-27T01:20:16.987Z,4.00
2018-04-27T01:22:49.253Z,4.00
2018-04-27T01:23:49.425Z,4.00
2018-04-27T01:24:49.575Z,4.00
2018-04-27T01:25:49.738Z,4.00
2018-04-27T01:26:49.903Z,4.00
2018-04-27T01:27:50.066Z,4.00
2018-04-27T01:28:50.226Z,4.00
2018-04-27T01:29:50.389Z,4.00
2018-04-27T01:30:50.551Z,4.00
2018-04-27T01:31:50.716Z,4.00
2018-04-27T01:32:50.904Z,4.00
2018-04-27T01:33:51.039Z,4.00
2018-04-27T01:34:51.203Z,4.00
2018-04-27T01:35:51.359Z,4.00
2018-04-27T01:36:51.523Z,4.00
2018-04-27T01:39:34.087Z,4.00
2018-04-27T01:40:34.252Z,4.00
2018-04-27T01:41:34.412Z,4.00
2018-04-27T01:42:34.575Z,4.00
2018-04-27T01:43:34.745Z,4.00
2018-04-27T01:44:34.901Z,4.00
2018-04-27T01:45:35.066Z,4.00
2018-04-27T01:46:35.226Z,4.00
2018-04-27T01:47:35.386Z,4.00
2018-04-27T01:48:35.550Z,4.00
2018-04-27T01:49:35.709Z,4.00
2018-04-27T01:50:35.876Z,4.00
2018-04-27T01:51:36.040Z,4.00
2018-04-27T01:52:36.205Z,4.00
2018-04-27T01:53:36.365Z,4.00
2018-04-27T01:56:18.916Z,4.00
2018-04-27T01:57:19.082Z,4.00
2018-04-27T01:58:19.245Z,4.00
2018-04-27T01:59:19.400Z,4.00
2018-04-27T02:00:19.573Z,4.00
2018-04-27T02:01:19.727Z,4.00
2018-04-27T02:02:19.889Z,4.00
2018-04-27T02:03:20.051Z,4.00
2018-04-27T02:04:20.211Z,4.00
2018-04-27T02:05:20.374Z,4.00
2018-04-27T02:06:20.541Z,4.00
2018-04-27T02:07:20.706Z,4.00
2018-04-27T02:08:20.858Z,4.00
2018-04-27T02:09:21.027Z,4.00
2018-04-27T02:10:21.178Z,4.00
2018-04-27T02:13:03.722Z,4.00
2018-04-27T02:14:03.892Z,4.00
2018-04-27T02:15:04.056Z,4.00
2018-04-27T02:16:04.214Z,4.00
2018-04-27T02:17:04.375Z,4.00
2018-04-27T02:18:04.527Z,4.00
2018-04-27T02:19:04.688Z,4.00
2018-04-27T02:20:04.854Z,4.00
2018-04-27T02:21:05.005Z,4.00
2018-04-27T02:22:05.175Z,4.00
2018-04-27T02:24:47.431Z,4.00
2018-04-27T02:25:47.593Z,8.00
2018-04-27T02:26:47.752Z,4.00
2018-04-27T02:27:47.912Z,4.00
2018-04-27T02:28:48.076Z,4.00
2018-04-27T02:29:48.236Z,4.00
2018-04-27T02:30:48.401Z,4.00
2018-04-27T02:31:48.561Z,4.00
2018-04-27T02:32:48.728Z,4.00
2018-04-27T02:33:48.917Z,4.00
2018-04-27T02:34:49.045Z,4.00
2018-04-27T02:35:49.216Z,4.00
2018-04-27T02:36:51.004Z,4.00
2018-04-27T02:37:49.545Z,4.00
2018-04-27T02:38:49.708Z,4.00
2018-04-27T02:41:31.966Z,4.00
2018-04-27T02:42:32.127Z,4.00
2018-04-27T02:43:32.916Z,4.00
2018-04-27T02:44:32.445Z,4.00
2018-04-27T02:45:32.614Z,4.00
2018-04-27T02:46:32.768Z,4.00
2018-04-27T02:47:32.934Z,4.00
2018-04-27T02:48:33.090Z,4.00
2018-04-27T02:49:33.250Z,4.00
2018-04-27T02:50:33.410Z,4.00
2018-04-27T02:51:33.573Z,4.00
2018-04-27T02:52:33.734Z,4.00
2018-04-27T02:53:33.903Z,4.00
2018-04-27T02:54:34.062Z,4.00
2018-04-27T02:55:34.217Z,4.00
2018-04-27T02:58:17.026Z,4.00
2018-04-27T02:59:16.951Z,4.00
2018-04-27T03:00:17.113Z,4.00
2018-04-27T03:01:17.273Z,4.00
2018-04-27T03:02:17.429Z,4.00
2018-04-27T03:03:17.639Z,4.00
2018-04-27T03:04:17.750Z,4.00
2018-04-27T03:05:17.915Z,4.00
2018-04-27T03:06:18.079Z,4.00
2018-04-27T03:07:18.240Z,4.00
2018-04-27T03:10:00.504Z,4.00
2018-04-27T03:11:00.671Z,4.00
2018-04-27T03:12:00.834Z,4.00
2018-04-27T03:13:00.993Z,4.00
2018-04-27T03:14:01.159Z,4.00
2018-04-27T03:15:01.319Z,4.00
2018-04-27T03:16:01.478Z,4.00
2018-04-27T03:17:01.638Z,4.00
2018-04-27T03:18:01.798Z,4.00
2018-04-27T03:19:01.957Z,4.00
2018-04-27T03:20:02.127Z,4.00
2018-04-27T03:21:02.291Z,4.00
2018-04-27T03:22:02.452Z,4.00
2018-04-27T03:23:02.602Z,4.00
2018-04-27T03:24:02.772Z,4.00
2018-04-27T03:26:45.320Z,4.00
2018-04-27T03:27:45.485Z,4.00
2018-04-27T03:28:45.649Z,4.00
2018-04-27T03:29:45.792Z,4.00
2018-04-27T03:30:45.963Z,4.00
2018-04-27T03:31:46.126Z,0.00
2018-04-27T03:32:46.286Z,4.00
2018-04-27T03:33:46.473Z,4.00
2018-04-27T03:34:46.609Z,4.00
2018-04-27T03:35:46.769Z,4.00
2018-04-27T03:36:46.930Z,4.00
2018-04-27T03:37:47.095Z,4.00
2018-04-27T03:38:47.258Z,8.00
2018-04-27T03:39:47.415Z,4.00
2018-04-27T03:40:47.575Z,4.00
2018-04-27T03:43:29.839Z,4.00
2018-04-27T03:44:30.001Z,4.00
2018-04-27T03:45:30.206Z,4.00
2018-04-27T03:46:30.323Z,4.00
2018-04-27T03:47:30.491Z,4.00
2018-04-27T03:48:30.647Z,4.00
2018-04-27T03:49:30.807Z,8.00
2018-04-27T03:50:30.966Z,8.00
2018-04-27T03:51:31.131Z,8.00
2018-04-27T03:52:31.301Z,12.00
2018-04-27T03:53:31.452Z,16.00
2018-04-27T03:54:31.620Z,16.00
2018-04-27T03:55:31.800Z,16.00
2018-04-27T03:56:31.970Z,24.00
2018-04-27T03:57:32.119Z,20.00
2018-04-27T04:00:14.375Z,28.00
2018-04-27T04:01:14.609Z,32.00
2018-04-27T04:02:14.702Z,32.00
2018-04-27T04:03:14.884Z,36.00
2018-04-27T04:04:15.046Z,40.00
2018-04-27T04:05:15.209Z,40.00
2018-04-27T04:06:15.378Z,48.00
2018-04-27T04:07:15.528Z,48.00
2018-04-27T04:08:15.696Z,56.00
2018-04-27T04:09:15.924Z,56.00
2018-04-27T04:10:16.018Z,68.00
2018-04-27T04:11:16.180Z,72.00
2018-04-27T04:12:16.341Z,80.00
2018-04-27T04:13:16.503Z,84.00
2018-04-27T04:14:25.598Z,96.00
2018-04-27T04:15:16.881Z,100.00
2018-04-27T04:16:17.042Z,108.00
2018-04-27T04:17:17.206Z,112.00
2018-04-27T04:18:17.370Z,124.00
2018-04-27T04:19:17.533Z,132.00
2018-04-27T04:20:17.693Z,140.00
2018-04-27T04:21:17.862Z,152.00
2018-04-27T04:22:18.021Z,160.00
2018-04-27T04:23:18.180Z,172.00
2018-04-27T04:24:18.344Z,184.00
2018-04-27T04:25:18.500Z,192.00
2018-04-27T04:26:18.665Z,204.00
2018-04-27T04:27:18.825Z,216.00
2018-04-27T04:28:18.987Z,228.00
2018-04-27T04:29:19.147Z,236.00
2018-04-27T04:32:01.410Z,268.00
2018-04-27T04:33:01.566Z,280.00
2018-04-27T04:34:01.724Z,292.00
2018-04-27T04:35:01.885Z,300.00
2018-04-27T04:36:02.035Z,316.00
2018-04-27T04:37:02.196Z,320.00
2018-04-27T04:38:02.358Z,332.00
2018-04-27T04:39:02.524Z,344.00
2018-04-27T04:40:09.863Z,356.00
2018-04-27T04:41:02.892Z,368.00
2018-04-27T04:42:03.053Z,372.00
2018-04-27T04:43:03.215Z,380.00
2018-04-27T04:44:11.061Z,400.00
2018-04-27T04:45:03.683Z,412.00
2018-04-27T04:46:03.774Z,428.00
2018-04-27T04:47:03.913Z,448.00
2018-04-27T04:48:04.104Z,468.00
2018-04-27T04:49:04.260Z,480.00
2018-04-27T04:50:04.423Z,492.00
2018-04-27T04:51:04.582Z,512.00
2018-04-27T04:52:04.744Z,520.00
2018-04-27T04:53:04.909Z,528.00
2018-04-27T04:54:05.097Z,548.00
2018-04-27T04:55:05.243Z,572.00
2018-04-27T04:56:05.397Z,600.00
2018-04-27T04:57:05.563Z,632.00
2018-04-27T04:58:05.715Z,656.00
2018-04-27T05:00:48.255Z,672.00
2018-04-27T05:01:48.933Z,664.00
2018-04-27T05:02:48.586Z,652.00
2018-04-27T05:03:48.785Z,652.00
2018-04-27T05:04:49.500Z,656.00
2018-04-27T05:05:56.958Z,616.00
2018-04-27T05:06:49.220Z,628.00
2018-04-27T05:07:49.383Z,636.00
2018-04-27T05:08:49.544Z,652.00
2018-04-27T05:09:49.718Z,648.00
2018-04-27T05:10:49.900Z,652.00
2018-04-27T05:11:50.046Z,652.00
2018-04-27T05:12:50.206Z,664.00
2018-04-27T05:13:50.360Z,620.00
2018-04-27T05:14:50.531Z,608.00
2018-04-27T05:15:58.659Z,600.00
2018-04-27T05:16:50.813Z,596.00
2018-04-27T05:17:53.529Z,588.00
2018-04-27T05:18:51.187Z,576.00
2018-04-27T05:19:51.350Z,560.00
2018-04-27T05:20:51.508Z,560.00
2018-04-27T05:21:51.676Z,548.00
2018-04-27T05:22:51.816Z,544.00
2018-04-27T05:23:51.989Z,544.00
2018-04-27T05:24:52.164Z,532.00
2018-04-27T05:25:52.709Z,552.00
2018-04-27T05:27:00.586Z,572.00
2018-04-27T05:27:52.710Z,604.00
2018-04-27T05:28:52.755Z,640.00
2018-04-27T05:29:53.123Z,692.00
2018-04-27T05:30:53.031Z,744.00
2018-04-27T05:31:53.180Z,796.00
2018-04-27T05:32:53.378Z,856.00
2018-04-27T05:33:53.546Z,884.00
2018-04-27T05:34:53.756Z,888.00
2018-04-27T05:35:53.920Z,900.00
2018-04-27T05:36:54.987Z,888.00
2018-04-27T05:37:54.236Z,876.00
2018-04-27T05:38:54.393Z,872.00
2018-04-27T05:39:54.606Z,900.00
2018-04-27T05:40:54.772Z,996.00
2018-04-27T05:41:54.992Z,1116.00
2018-04-27T05:43:03.787Z,1496.00
2018-04-27T05:43:55.308Z,1620.00
2018-04-27T05:44:55.469Z,1564.00
2018-04-27T05:45:55.645Z,1732.00
2018-04-27T05:46:55.804Z,1924.00
2018-04-27T05:47:55.943Z,2236.00
2018-04-27T05:48:56.178Z,2608.00
2018-04-27T05:49:56.272Z,2336.00
2018-04-27T05:50:56.445Z,1704.00
2018-04-27T05:51:56.605Z,2380.00
2018-04-27T05:52:56.770Z,2428.00
2018-04-27T05:55:39.381Z,2476.00
2018-04-27T05:56:39.499Z,3140.00
2018-04-27T05:57:47.479Z,2724.00
2018-04-27T05:58:39.892Z,3356.00
2018-04-27T05:59:40.079Z,3388.00
2018-04-27T06:00:40.275Z,3440.00
2018-04-27T06:01:40.437Z,3844.00
2018-04-27T06:02:40.596Z,3608.00
2018-04-27T06:03:40.763Z,4008.00
2018-04-27T06:04:40.949Z,4212.00
2018-04-27T06:05:41.116Z,4632.00
2018-04-27T06:06:41.259Z,5004.00
2018-04-27T06:07:41.418Z,4900.00
2018-04-27T06:08:41.587Z,7912.00
2018-04-27T06:09:41.755Z,15412.00
2018-04-27T06:10:41.915Z,18880.00
2018-04-27T06:11:42.076Z,21568.00
2018-04-27T06:14:24.339Z,28096.00
2018-04-27T06:15:24.509Z,28000.00
2018-04-27T06:16:24.674Z,7200.00
2018-04-27T06:17:24.838Z,5372.00
2018-04-27T06:18:25.004Z,3592.00
2018-04-27T06:19:25.167Z,2864.00
2018-04-27T06:20:25.332Z,2376.00
2018-04-27T06:21:25.513Z,2092.00
2018-04-27T06:22:25.665Z,1964.00
2018-04-27T06:23:27.359Z,1936.00
2018-04-27T06:24:26.025Z,1988.00
2018-04-27T06:25:34.146Z,2032.00
2018-04-27T06:26:26.303Z,2052.00
2018-04-27T06:27:26.468Z,2060.00
2018-04-27T06:28:26.647Z,2120.00
2018-04-27T06:29:26.800Z,2156.00
2018-04-27T06:30:26.960Z,2252.00
2018-04-27T06:31:27.114Z,2396.00
2018-04-27T06:32:27.268Z,2516.00
2018-04-27T06:33:34.620Z,2636.00
2018-04-27T06:34:27.655Z,2952.00
2018-04-27T06:35:27.825Z,3284.00
2018-04-27T06:36:27.987Z,3488.00
2018-04-27T06:37:28.150Z,4644.00
2018-04-27T06:38:28.315Z,5116.00
2018-04-27T06:39:28.544Z,6228.00
2018-04-27T06:40:28.643Z,7848.00
2018-04-27T06:41:28.811Z,6628.00
2018-04-27T06:42:28.967Z,6276.00
2018-04-27T06:43:29.130Z,5508.00
2018-04-27T06:44:29.295Z,5164.00
2018-04-27T06:45:29.451Z,5456.00
2018-04-27T06:46:29.605Z,4540.00
2018-04-27T06:47:29.769Z,5604.00
2018-04-27T06:50:12.012Z,7636.00
2018-04-27T06:51:12.185Z,6268.00
2018-04-27T06:52:12.367Z,5256.00
2018-04-27T06:53:12.519Z,4856.00
2018-04-27T06:54:12.663Z,5208.00
2018-04-27T06:55:12.818Z,5344.00
2018-04-27T06:56:13.002Z,4832.00
2018-04-27T06:57:13.167Z,7936.00
2018-04-27T06:58:13.337Z,15344.00
2018-04-27T06:59:13.516Z,6172.00
2018-04-27T07:00:13.662Z,13236.00
2018-04-27T07:01:13.832Z,21088.00
2018-04-27T07:02:13.991Z,11204.00
2018-04-27T07:03:14.158Z,5736.00
2018-04-27T07:04:14.323Z,6448.00
2018-04-27T07:06:56.585Z,4160.00
2018-04-27T07:07:56.746Z,4628.00
2018-04-27T07:08:56.910Z,4892.00
2018-04-27T07:09:57.081Z,4784.00
2018-04-27T07:10:57.236Z,4472.00
2018-04-27T07:11:57.399Z,4616.00
2018-04-27T07:12:57.577Z,4548.00
2018-04-27T07:13:57.738Z,4372.00
2018-04-27T07:14:57.903Z,4196.00
2018-04-27T07:16:05.957Z,4360.00
2018-04-27T07:16:58.267Z,4608.00
2018-04-27T07:17:58.368Z,4656.00
2018-04-27T07:18:58.497Z,4764.00
2018-04-27T07:19:58.677Z,4760.00
2018-04-27T07:20:58.820Z,4980.00
2018-04-27T07:21:58.984Z,5168.00
2018-04-27T07:23:06.602Z,4920.00
2018-04-27T07:23:59.251Z,4840.00
2018-04-27T07:24:59.416Z,4764.00
2018-04-27T07:25:59.620Z,4768.00
2018-04-27T07:26:59.745Z,4916.00
2018-04-27T07:27:59.912Z,4508.00
2018-04-27T07:29:00.076Z,4188.00
2018-04-27T07:30:00.240Z,4332.00
2018-04-27T07:31:00.413Z,4984.00
2018-04-27T07:32:00.578Z,4344.00
2018-04-27T07:33:01.598Z,4940.00
2018-04-27T07:34:00.901Z,5412.00
2018-04-27T07:35:01.101Z,5636.00
2018-04-27T07:36:01.221Z,4316.00
2018-04-27T07:37:01.387Z,4568.00
2018-04-27T07:39:33.724Z,4296.00
2018-04-27T07:40:33.820Z,4408.00
2018-04-27T07:41:33.986Z,4352.00
2018-04-27T07:42:34.151Z,4500.00
2018-04-27T07:43:34.306Z,4600.00
2018-04-27T07:44:34.489Z,4780.00
2018-04-27T07:45:34.657Z,5020.00
2018-04-27T07:46:34.821Z,4912.00
2018-04-27T07:47:34.980Z,4816.00
2018-04-27T07:48:35.150Z,4568.00
2018-04-27T07:51:17.701Z,3564.00
2018-04-27T07:52:17.866Z,3720.00
2018-04-27T07:53:18.035Z,4260.00
2018-04-27T07:54:18.199Z,4644.00
2018-04-27T07:55:18.508Z,4568.00
2018-04-27T07:56:18.533Z,4620.00
2018-04-27T07:57:18.706Z,5348.00
2018-04-27T07:58:18.856Z,4852.00
2018-04-27T07:59:19.016Z,4776.00
2018-04-27T08:00:19.171Z,4612.00
2018-04-27T08:03:01.720Z,4976.00
2018-04-27T08:04:01.893Z,4912.00
2018-04-27T08:05:02.060Z,4804.00
2018-04-27T08:06:02.232Z,5008.00
2018-04-27T08:07:02.394Z,4876.00
2018-04-27T08:08:02.563Z,4912.00
2018-04-27T08:09:02.726Z,4896.00
2018-04-27T08:10:02.894Z,5220.00
2018-04-27T08:11:03.061Z,5264.00
2018-04-27T08:12:03.259Z,5020.00
2018-04-27T08:14:35.838Z,5016.00
2018-04-27T08:15:35.995Z,4820.00
2018-04-27T08:16:36.182Z,5068.00
2018-04-27T08:17:36.337Z,4744.00
2018-04-27T08:18:37.134Z,5092.00
2018-04-27T08:19:36.639Z,4972.00
2018-04-27T08:20:36.813Z,4940.00
2018-04-27T08:21:36.964Z,4904.00
2018-04-27T08:22:37.202Z,4992.00
2018-04-27T08:23:37.292Z,4928.00
2018-04-27T08:26:09.903Z,4516.00
2018-04-27T08:27:10.069Z,4636.00
2018-04-27T08:28:10.235Z,4860.00
2018-04-27T08:29:10.402Z,4988.00
2018-04-27T08:30:10.578Z,4816.00
2018-04-27T08:31:10.734Z,4660.00
2018-04-27T08:32:10.899Z,4744.00
2018-04-27T08:33:11.074Z,4588.00
2018-04-27T08:34:11.233Z,4708.00
2018-04-27T08:35:11.398Z,4520.00
2018-04-27T08:37:43.968Z,4388.00
2018-04-27T08:38:44.125Z,4392.00
2018-04-27T08:39:44.295Z,4268.00
2018-04-27T08:40:44.496Z,4244.00
2018-04-27T08:41:44.636Z,4504.00
2018-04-27T08:42:44.806Z,4260.00
2018-04-27T08:43:45.023Z,4144.00
2018-04-27T08:44:45.138Z,4172.00
2018-04-27T08:45:45.315Z,4356.00
2018-04-27T08:46:45.499Z,4360.00
2018-04-27T08:47:45.655Z,4392.00
2018-04-27T08:48:45.819Z,4296.00
2018-04-27T08:49:45.991Z,4400.00
2018-04-27T08:50:46.143Z,4204.00
2018-04-27T08:51:46.332Z,4148.00
2018-04-27T08:54:28.607Z,4284.00
2018-04-27T08:55:28.745Z,4312.00
2018-04-27T08:56:28.903Z,4376.00
2018-04-27T08:57:29.075Z,4376.00
2018-04-27T08:58:29.251Z,4540.00
2018-04-27T08:59:29.412Z,4252.00
2018-04-27T09:00:29.576Z,4212.00
2018-04-27T09:01:29.746Z,4384.00
2018-04-27T09:02:30.632Z,4576.00
2018-04-27T09:03:30.049Z,4496.00
2018-04-27T09:04:30.218Z,4592.00
2018-04-27T09:05:30.381Z,4600.00
2018-04-27T09:06:30.549Z,4520.00
2018-04-27T09:07:30.716Z,4496.00
2018-04-27T09:08:30.880Z,4328.00
2018-04-27T09:11:13.449Z,4328.00
2018-04-27T09:12:13.597Z,4356.00
2018-04-27T09:13:13.767Z,4520.00
2018-04-27T09:14:13.936Z,4516.00
2018-04-27T09:15:14.103Z,4612.00
2018-04-27T09:16:14.350Z,4204.00
2018-04-27T09:17:14.447Z,4388.00
2018-04-27T09:18:14.616Z,4176.00
2018-04-27T09:19:14.782Z,4272.00
2018-04-27T09:20:14.941Z,4172.00
2018-04-27T09:21:15.166Z,4284.00
2018-04-27T09:22:15.272Z,4372.00
2018-04-27T09:23:23.532Z,4484.00
2018-04-27T09:24:15.557Z,4728.00
2018-04-27T09:25:15.725Z,4568.00
2018-04-27T09:26:23.939Z,4764.00
2018-04-27T09:27:16.096Z,5100.00
2018-04-27T09:28:16.307Z,4696.00
2018-04-27T09:29:16.470Z,4724.00
2018-04-27T09:30:16.717Z,4660.00
2018-04-27T09:31:16.779Z,4656.00
2018-04-27T09:32:16.950Z,4452.00
2018-04-27T09:33:17.118Z,4600.00
2018-04-27T09:34:17.273Z,4820.00
2018-04-27T09:35:17.441Z,4652.00
2018-04-27T09:36:18.223Z,4636.00
2018-04-27T09:39:00.176Z,4392.00
2018-04-27T09:40:00.320Z,4196.00
2018-04-27T09:41:00.514Z,4468.00
2018-04-27T09:42:00.660Z,4512.00
2018-04-27T09:43:00.832Z,4332.00
2018-04-27T09:44:01.004Z,6388.00
2018-04-27T09:45:01.172Z,4472.00
2018-04-27T09:46:01.339Z,4584.00
2018-04-27T09:47:01.508Z,4512.00
2018-04-27T09:48:01.674Z,3220.00
2018-04-27T09:49:01.843Z,3712.00
2018-04-27T09:50:02.012Z,3792.00
2018-04-27T09:51:02.175Z,4212.00
2018-04-27T09:52:02.341Z,3832.00
2018-04-27T09:53:02.511Z,3372.00
2018-04-27T09:55:34.796Z,3900.00
2018-04-27T09:56:42.488Z,3224.00
2018-04-27T09:57:35.232Z,3076.00
2018-04-27T09:58:35.307Z,3684.00
2018-04-27T09:59:43.189Z,3832.00
2018-04-27T10:00:35.601Z,3524.00
2018-04-27T10:01:35.768Z,4220.00
2018-04-27T10:02:35.933Z,3496.00
2018-04-27T10:03:36.100Z,3064.00
2018-04-27T10:04:36.266Z,3240.00
2018-04-27T10:05:36.467Z,3692.00
2018-04-27T10:06:36.606Z,3536.00
2018-04-27T10:07:36.774Z,4016.00
2018-04-27T10:08:36.947Z,4616.00
2018-04-27T10:09:37.115Z,4356.00
2018-04-27T10:12:19.682Z,4068.00
2018-04-27T10:13:19.851Z,4400.00
2018-04-27T10:14:20.017Z,4636.00
2018-04-27T10:15:20.182Z,4708.00
2018-04-27T10:16:20.348Z,4644.00
2018-04-27T10:17:22.406Z,4632.00
2018-04-27T10:18:20.693Z,4528.00
2018-04-27T10:19:20.859Z,4400.00
2018-04-27T10:20:21.027Z,4140.00
2018-04-27T10:21:21.927Z,4224.00
2018-04-27T10:23:53.753Z,4388.00
2018-04-27T10:24:53.917Z,4452.00
2018-04-27T10:25:54.082Z,4376.00
2018-04-27T10:26:54.251Z,4860.00
2018-04-27T10:27:54.417Z,5060.00
2018-04-27T10:28:54.622Z,4368.00
2018-04-27T10:29:54.806Z,3796.00
2018-04-27T10:30:54.968Z,4116.00
2018-04-27T10:31:55.133Z,4024.00
2018-04-27T10:32:55.299Z,3672.00
2018-04-27T10:35:37.904Z,4228.00
2018-04-27T10:36:38.143Z,4516.00
2018-04-27T10:37:38.358Z,4712.00
2018-04-27T10:38:38.416Z,4864.00
2018-04-27T10:39:46.072Z,4648.00
2018-04-27T10:40:38.733Z,4316.00
2018-04-27T10:41:38.902Z,3988.00
2018-04-27T10:42:39.097Z,2496.00
2018-04-27T10:43:41.147Z,2548.00
2018-04-27T10:44:39.441Z,2356.00
2018-04-27T10:45:39.606Z,2604.00
2018-04-27T10:46:39.779Z,3864.00
2018-04-27T10:47:39.946Z,2472.00
2018-04-27T10:48:40.113Z,2528.00
2018-04-27T10:49:40.283Z,2628.00
2018-04-27T10:52:12.564Z,2552.00
2018-04-27T10:53:12.722Z,2604.00
2018-04-27T10:54:12.889Z,2800.00
2018-04-27T10:55:13.061Z,5748.00
2018-04-27T10:56:13.429Z,4224.00
2018-04-27T10:57:13.401Z,4324.00
2018-04-27T10:58:13.558Z,4316.00
2018-04-27T11:00:13.883Z,2668.00
2018-04-27T11:01:14.035Z,3596.00
2018-04-27T11:02:22.184Z,2680.00
2018-04-27T11:03:14.346Z,2760.00
2018-04-27T11:04:14.521Z,2508.00
2018-04-27T11:05:14.672Z,2432.00
2018-04-27T11:06:15.104Z,2508.00
2018-04-27T11:07:15.048Z,3236.00
2018-04-27T11:08:22.374Z,3360.00
2018-04-27T11:09:16.130Z,3992.00
2018-04-27T11:10:15.545Z,3668.00
2018-04-27T11:11:22.874Z,3256.00
2018-04-27T11:12:15.914Z,3136.00
2018-04-27T11:13:16.079Z,3212.00
2018-04-27T11:14:16.250Z,2384.00
2018-04-27T11:15:16.419Z,2580.00
2018-04-27T11:16:16.623Z,3160.00
2018-04-27T11:17:16.758Z,2344.00
2018-04-27T11:18:18.665Z,2320.00
2018-04-27T11:19:17.073Z,2208.00
2018-04-27T11:20:17.333Z,2168.00
2018-04-27T11:21:17.394Z,2304.00
2018-04-27T11:22:17.565Z,2328.00
2018-04-27T11:23:17.727Z,2488.00
2018-04-27T11:24:17.911Z,2364.00
2018-04-27T11:25:18.071Z,2368.00
2018-04-27T11:27:50.400Z,3816.00
2018-04-27T11:28:50.577Z,3644.00
2018-04-27T11:29:50.749Z,3740.00
2018-04-27T11:30:50.895Z,3540.00
2018-04-27T11:31:51.095Z,2996.00
2018-04-27T11:32:51.406Z,3492.00
2018-04-27T11:33:51.438Z,3084.00
2018-04-27T11:34:54.374Z,3356.00
2018-04-27T11:35:51.785Z,3436.00
2018-04-27T11:36:51.951Z,3232.00
2018-04-27T11:37:52.124Z,2992.00
2018-04-27T11:38:52.300Z,3152.00
2018-04-27T11:39:52.473Z,2868.00
2018-04-27T11:40:52.642Z,2976.00
2018-04-27T11:41:52.877Z,3040.00
2018-04-27T11:44:35.066Z,2800.00
2018-04-27T11:45:35.244Z,3224.00
2018-04-27T11:46:35.441Z,3008.00
2018-04-27T11:47:35.588Z,2872.00
2018-04-27T11:48:35.756Z,3200.00
2018-04-27T11:49:35.931Z,3124.00
2018-04-27T11:50:36.094Z,3188.00
2018-04-27T11:51:43.452Z,3080.00
2018-04-27T11:52:36.365Z,3076.00
2018-04-27T11:53:36.686Z,3144.00
2018-04-27T11:54:36.713Z,3100.00
2018-04-27T11:55:44.088Z,3140.00
2018-04-27T11:56:36.997Z,2940.00
2018-04-27T11:57:37.147Z,2984.00
2018-04-27T11:58:37.315Z,2824.00
2018-04-27T11:59:37.486Z,2724.00
2018-04-27T12:00:37.671Z,2640.00
2018-04-27T12:01:37.875Z,2720.00
2018-04-27T12:02:38.017Z,2996.00
2018-04-27T12:03:38.155Z,3028.00
2018-04-27T12:04:38.325Z,2584.00
2018-04-27T12:05:38.677Z,2824.00
2018-04-27T12:08:11.260Z,2732.00
2018-04-27T12:09:11.197Z,2704.00
2018-04-27T12:10:12.250Z,2864.00
2018-04-27T12:11:11.530Z,2956.00
2018-04-27T12:12:11.695Z,2872.00
2018-04-27T12:13:11.858Z,3012.00
2018-04-27T12:14:12.744Z,2980.00
2018-04-27T12:15:20.123Z,2940.00
2018-04-27T12:16:12.280Z,2964.00
2018-04-27T12:17:12.463Z,2908.00
2018-04-27T12:18:20.250Z,2612.00
2018-04-27T12:19:12.755Z,2716.00
2018-04-27T12:20:12.933Z,2744.00
2018-04-27T12:21:13.091Z,2828.00
2018-04-27T12:22:13.772Z,2876.00
2018-04-27T12:23:13.438Z,2892.00
2018-04-27T12:24:13.608Z,2884.00
2018-04-27T12:25:21.730Z,3200.00
2018-04-27T12:26:13.893Z,3224.00
2018-04-27T12:27:14.057Z,3092.00
2018-04-27T12:28:14.236Z,3068.00
2018-04-27T12:29:14.408Z,2844.00
2018-04-27T12:30:14.593Z,2516.00
2018-04-27T12:31:14.846Z,2808.00
2018-04-27T12:32:14.994Z,2820.00
2018-04-27T12:33:15.465Z,3136.00
2018-04-27T12:34:15.928Z,3100.00
2018-04-27T12:35:15.595Z,2948.00
2018-04-27T12:36:15.647Z,2904.00
2018-04-27T12:37:23.793Z,2744.00
2018-04-27T12:38:16.024Z,3360.00
2018-04-27T12:39:16.192Z,3388.00
2018-04-27T12:40:16.481Z,3476.00
2018-04-27T12:41:16.831Z,3288.00
2018-04-27T12:42:16.718Z,3388.00
2018-04-27T12:43:16.879Z,3092.00
2018-04-27T12:44:17.051Z,3120.00
2018-04-27T12:45:17.221Z,3192.00
2018-04-27T12:46:17.385Z,2884.00
2018-04-27T12:47:17.552Z,2600.00
2018-04-27T12:48:17.723Z,3108.00
2018-04-27T12:49:17.919Z,3172.00
2018-04-27T12:50:18.090Z,3184.00
2018-04-27T12:51:18.262Z,2868.00
2018-04-27T12:53:50.532Z,2600.00
2018-04-27T12:54:51.131Z,2488.00
2018-04-27T12:55:50.897Z,2204.00
2018-04-27T12:56:51.052Z,1972.00
2018-04-27T12:57:51.400Z,1892.00
2018-04-27T12:58:58.502Z,2016.00
2018-04-27T12:59:51.561Z,2076.00
2018-04-27T13:00:52.572Z,2228.00
2018-04-27T13:01:52.447Z,2200.00
2018-04-27T13:02:51.986Z,2368.00
2018-04-27T13:03:52.155Z,2460.00
2018-04-27T13:04:52.477Z,2756.00
2018-04-27T13:05:54.109Z,2884.00
2018-04-27T13:06:52.847Z,3076.00
2018-04-27T13:07:53.141Z,3240.00
2018-04-27T13:08:53.258Z,3152.00
2018-04-27T13:09:53.284Z,3024.00
2018-04-27T13:11:01.497Z,3284.00
2018-04-27T13:11:53.664Z,3168.00
2018-04-27T13:12:54.796Z,2900.00
2018-04-27T13:13:54.600Z,2824.00
2018-04-27T13:14:58.936Z,2460.00
2018-04-27T13:15:54.309Z,2760.00
2018-04-27T13:16:54.627Z,3072.00
2018-04-27T13:17:54.721Z,2892.00
2018-04-27T13:18:55.682Z,2692.00
2018-04-27T13:19:56.309Z,2732.00
2018-04-27T13:20:57.026Z,2552.00
2018-04-27T13:22:03.235Z,2320.00
2018-04-27T13:22:55.399Z,2648.00
2018-04-27T13:23:55.643Z,2796.00
2018-04-27T13:24:55.743Z,2544.00
2018-04-27T13:25:55.914Z,3024.00
2018-04-27T13:26:56.078Z,3032.00
2018-04-27T13:27:56.247Z,2948.00
2018-04-27T13:28:57.121Z,2796.00
2018-04-27T13:29:56.551Z,2724.00
2018-04-27T13:30:56.720Z,2844.00
2018-04-27T13:31:56.889Z,2856.00
2018-04-27T13:33:04.740Z,2784.00
2018-04-27T13:33:57.266Z,2548.00
2018-04-27T13:34:57.432Z,2396.00
2018-04-27T13:35:57.605Z,2620.00
2018-04-27T13:36:57.771Z,2588.00
2018-04-27T13:37:57.974Z,2668.00